»·PEaware :: N275ND KSNA-KAVX

N275ND :: KSNA-KAVX

FLIGHT INFORMATION

Flight Status: Arrived
Operator: Privately registered:
United States
More flights under this callsign
Pilot: John A. (19135)
Aircraft: CESSNA 172 SKYHAWK
(C172)
More flights by this aircraft type
Origin: KSNA John Wayne-Orange Co
United States
Destination: KAVX Catalina
United States
More flights between these airports :: More routes between these airports
Route: SLI V21 SXC
File this flight plan on PilotEdge
Remarks: I-7 Rating
Altitude:
(Current/Filed)
4,000ft
Speed:
(Current/Filed)
115kts
Departed: 22-Aug-19 08:31 AM
Arrived: 22-Aug-19 08:52 AM
Distance/Time
Traveled:
32nm/0:21
Distance/Time
To Go:
Arrived

Flight Plot

Page will automatically refresh every two minutes.


Map Options




Map Legend


Flown Route
Filed Route
Departure Airport
Arrival Airport
Navaid (VOR, NDB)
Fix

Horizontal Profiles

Position Reports

Time Latitude Longitude Heading Altitude Ground
Speed
22-Aug-19 07:30 33.667754 -117.871427 41 60ft 0kts
22-Aug-19 07:31 33.667754 -117.871427 41 60ft 0kts
22-Aug-19 07:32 33.667754 -117.871427 41 60ft 0kts
22-Aug-19 07:33 33.667754 -117.871427 41 60ft 0kts
22-Aug-19 07:34 33.667754 -117.871427 41 60ft 0kts
22-Aug-19 07:35 33.667754 -117.871427 41 60ft 0kts
22-Aug-19 07:36 33.667754 -117.871427 41 60ft 0kts
22-Aug-19 07:37 33.667754 -117.871427 41 60ft 0kts
22-Aug-19 07:38 33.667754 -117.871427 41 60ft 0kts
22-Aug-19 07:39 33.667754 -117.871427 41 60ft 0kts
22-Aug-19 07:40 33.667754 -117.871427 41 60ft 0kts
22-Aug-19 07:41 33.667754 -117.871427 41 60ft 0kts
22-Aug-19 07:42 33.667754 -117.871427 41 60ft 0kts
22-Aug-19 07:43 33.667754 -117.871427 41 60ft 0kts
22-Aug-19 07:44 33.667754 -117.871427 41 60ft 0kts
22-Aug-19 07:45 33.667754 -117.871427 41 60ft 0kts
22-Aug-19 07:46 33.667754 -117.871427 41 60ft 0kts
22-Aug-19 07:48 33.667754 -117.871427 41 60ft 0kts
22-Aug-19 07:49 33.667754 -117.871427 41 60ft 0kts
22-Aug-19 07:50 33.667754 -117.871427 41 60ft 0kts
22-Aug-19 07:51 33.667754 -117.871427 41 60ft 0kts
22-Aug-19 07:52 33.667754 -117.871427 41 60ft 0kts
22-Aug-19 07:53 33.667754 -117.871427 41 60ft 0kts
22-Aug-19 07:56 33.667754 -117.871427 41 60ft 0kts
22-Aug-19 07:57 33.667754 -117.871427 41 60ft 0kts
22-Aug-19 07:58 33.667754 -117.871427 41 60ft 0kts
22-Aug-19 07:59 33.667754 -117.871427 41 60ft 0kts
22-Aug-19 08:00 33.667754 -117.871427 41 60ft 0kts
22-Aug-19 08:01 33.667754 -117.871427 41 60ft 0kts
22-Aug-19 08:02 33.667754 -117.871427 41 60ft 0kts
22-Aug-19 08:03 33.667754 -117.871427 41 60ft 0kts
22-Aug-19 08:04 33.667754 -117.871427 41 60ft 0kts
22-Aug-19 08:05 33.667754 -117.871427 41 60ft 0kts
22-Aug-19 08:06 33.667754 -117.871427 41 60ft 0kts
22-Aug-19 08:07 33.667754 -117.871427 41 60ft 0kts
22-Aug-19 08:08 33.667754 -117.871427 41 60ft 0kts
22-Aug-19 08:09 33.667754 -117.871427 41 60ft 0kts
22-Aug-19 08:10 33.667754 -117.871427 41 60ft 0kts
22-Aug-19 08:11 33.667754 -117.871427 41 60ft 0kts
22-Aug-19 08:12 33.667754 -117.871427 41 60ft 0kts
22-Aug-19 08:13 33.667754 -117.871427 41 60ft 0kts
22-Aug-19 08:14 33.667754 -117.871427 41 60ft 0kts
22-Aug-19 08:15 33.667754 -117.871427 41 60ft 0kts
22-Aug-19 08:16 33.667754 -117.871427 41 60ft 0kts
22-Aug-19 08:17 33.667754 -117.871427 41 60ft 0kts
22-Aug-19 08:18 33.667754 -117.871427 41 60ft 0kts
22-Aug-19 08:19 33.667754 -117.871427 41 60ft 0kts
22-Aug-19 08:20 33.667754 -117.871427 41 60ft 0kts
22-Aug-19 08:21 33.668841 -117.871224 41 60ft 14kts
22-Aug-19 08:22 33.671643 -117.868353 28 60ft 11kts
22-Aug-19 08:23 33.674827 -117.866657 30 60ft 7kts
22-Aug-19 08:24 33.676873 -117.865347 29 60ft 18kts
22-Aug-19 08:25 33.679760 -117.863390 334 60ft 0kts
22-Aug-19 08:26 33.679847 -117.863445 329 60ft 6kts
22-Aug-19 08:27 33.679948 -117.863544 315 60ft 0kts
22-Aug-19 08:28 33.679948 -117.863544 315 60ft 0kts
22-Aug-19 08:29 33.679790 -117.864406 204 60ft 12kts
22-Aug-19 08:30 33.664828 -117.877742 233 756ft 72kts
22-Aug-19 08:31 33.650201 -117.898172 230 1590ft 84kts
22-Aug-19 08:32 33.635200 -117.921391 234 2294ft 100kts
22-Aug-19 08:33 33.617819 -117.947457 231 3007ft 101kts
22-Aug-19 08:34 33.608526 -117.977378 285 3666ft 101kts
22-Aug-19 08:35 33.629199 -118.002716 320 4010ft 119kts
22-Aug-19 08:36 33.656509 -118.028152 321 3971ft 121kts
22-Aug-19 08:37 33.665308 -118.061785 262 3974ft 116kts
22-Aug-19 08:38 33.660233 -118.099137 256 4059ft 114kts
22-Aug-19 08:39 33.658293 -118.138207 262 4014ft 120kts
22-Aug-19 08:40 33.640872 -118.172309 227 3934ft 120kts
22-Aug-19 08:41 33.616543 -118.200376 217 3882ft 122kts
22-Aug-19 08:42 33.590332 -118.223578 212 3933ft 124kts
22-Aug-19 08:43 33.564009 -118.248258 223 4029ft 121kts
22-Aug-19 08:44 33.537481 -118.273673 215 4131ft 121kts
22-Aug-19 08:45 33.510163 -118.300091 220 4049ft 127kts
22-Aug-19 08:46 33.482288 -118.326203 217 4006ft 127kts
22-Aug-19 08:47 33.450671 -118.343222 193 3963ft 127kts
22-Aug-19 08:48 33.443337 -118.374336 282 4028ft 112kts
22-Aug-19 08:49 33.449226 -118.412282 242 4058ft 119kts
22-Aug-19 08:50 33.420563 -118.422116 155 2907ft 117kts
22-Aug-19 08:51 33.404143 -118.417151 245 1555ft 0kts

Navigation Log

Ident Type
Flight plan parsing failed, navigation log unavailable